Time;durP1;ratioP1;P1;durP2;ratioP2;P2;SDS_P1;SDS_P2;PMS_P1;PMS_P2;Temp;Humidity;BMP_temperature;BMP_pressure;BME280_temperature;BME280_humidity;BME280_pressure;Samples;Min_cycle;Max_cycle;Signal;HPM_P1;HPM_P2
2022/05/28 00:03:21;;;;;;;4.70;0.73;;;;;;;11.87;53.07;97785.41;9968534;29;19925;-75
2022/05/28 00:08:48;;;;;;;5.18;0.90;;;;;;;11.85;53.08;97790.88;9927736;29;20133;-75
2022/05/28 00:14:17;;;;;;;6.30;0.88;;;;;;;11.79;53.11;97798.84;9930051;29;20043;-75
2022/05/28 00:19:40;;;;;;;4.88;0.88;;;;;;;11.67;53.12;97787.63;9940089;29;20050;-75
2022/05/28 00:26:06;;;;;;;5.25;1.05;;;;;;;11.59;53.63;97790.66;9939994;29;20190;-75
2022/05/28 00:32:00;;;;;;;9.10;1.55;;;;;;;11.53;53.53;97784.66;9952161;29;20108;-75
2022/05/28 00:37:54;;;;;;;5.43;0.77;;;;;;;11.42;54.00;97783.28;9951702;29;20160;-75
2022/05/28 00:43:44;;;;;;;4.05;0.80;;;;;;;11.36;53.98;97780.06;9941341;29;20394;-75
2022/05/28 00:49:46;;;;;;;6.03;1.02;;;;;;;11.24;54.40;97784.88;9929303;29;20073;-75
2022/05/28 00:55:16;;;;;;;5.72;1.20;;;;;;;11.14;54.31;97782.16;9938516;29;20117;-75
2022/05/28 01:01:09;;;;;;;5.20;1.00;;;;;;;11.08;54.61;97776.16;9952554;29;20079;-75
2022/05/28 01:15:25;;;;;;;8.43;1.20;;;;;;;10.89;54.85;97773.47;9910979;29;20043;-75
2022/05/28 01:29:49;;;;;;;6.82;0.80;;;;;;;10.76;55.50;97769.16;9936798;29;20046;-74
2022/05/28 01:35:50;;;;;;;4.80;1.48;;;;;;;10.68;55.63;97760.22;9924634;29;20038;-75
2022/05/28 01:41:46;;;;;;;7.05;1.30;;;;;;;10.58;55.19;97749.13;9941850;29;20055;-75
2022/05/28 01:47:07;;;;;;;4.53;0.80;;;;;;;10.55;55.26;97747.53;9925909;29;20054;-75
2022/05/28 01:52:31;;;;;;;8.88;1.33;;;;;;;10.48;55.60;97747.69;9939363;29;20121;-75
2022/05/28 01:57:53;;;;;;;6.20;1.10;;;;;;;10.40;55.92;97753.47;9950196;29;20057;-74
2022/05/28 02:03:43;;;;;;;5.32;1.00;;;;;;;10.31;55.85;97749.38;9941897;29;20066;-75
2022/05/28 02:09:08;;;;;;;5.60;0.80;;;;;;;10.31;55.85;97740.28;9951118;29;20501;-75
2022/05/28 02:15:02;;;;;;;5.10;1.02;;;;;;;10.21;55.89;97750.72;9952521;29;20045;-75
2022/05/28 02:20:47;;;;;;;8.85;0.80;;;;;;;10.12;55.83;97751.47;9968233;29;20479;-75
2022/05/28 02:26:38;;;;;;;8.77;0.75;;;;;;;10.06;56.25;97760.19;9924969;29;20512;-75
2022/05/28 02:31:59;;;;;;;4.75;1.20;;;;;;;9.98;56.26;97743.63;9934928;29;20479;-75
2022/05/28 02:37:50;;;;;;;5.05;1.17;;;;;;;9.94;56.33;97742.59;9930192;29;20058;-75
2022/05/28 02:43:39;;;;;;;5.63;0.90;;;;;;;9.85;56.28;97741.31;9927986;29;20059;-75
2022/05/28 02:49:28;;;;;;;5.82;0.80;;;;;;;9.84;56.76;97742.59;9929761;29;20105;-75
2022/05/28 02:55:50;;;;;;;4.78;0.80;;;;;;;9.79;56.48;97740.88;9947714;29;20059;-74
2022/05/28 03:01:39;;;;;;;4.97;0.75;;;;;;;9.78;56.56;97738.69;9940891;29;20062;-76
2022/05/28 03:07:03;;;;;;;7.25;0.80;;;;;;;9.80;56.21;97745.13;9956255;29;20047;-79
2022/05/28 03:12:24;;;;;;;1.55;0.50;;;;;;;9.74;55.98;97741.91;9941056;29;20058;-77
2022/05/28 03:18:14;;;;;;;5.65;0.80;;;;;;;9.72;56.09;97745.28;9941078;29;20055;-77
2022/05/28 03:23:36;;;;;;;5.18;0.90;;;;;;;9.70;55.92;97744.41;9938769;29;20541;-79
2022/05/28 03:28:57;;;;;;;4.78;0.55;;;;;;;9.71;56.25;97751.44;9924735;29;20134;-76
2022/05/28 03:35:19;;;;;;;7.38;1.10;;;;;;;9.80;55.82;97749.97;9940444;29;20097;-77
2022/05/28 03:40:40;;;;;;;3.53;0.57;;;;;;;9.82;55.76;97747.31;9949017;29;20054;-77
2022/05/28 03:46:33;;;;;;;5.57;0.90;;;;;;;9.84;56.15;97750.97;9954511;29;20059;-79
2022/05/28 03:53:28;;;;;;;3.58;0.73;;;;;;;9.85;56.43;97746.16;9936642;29;20055;-79
2022/05/28 03:59:50;;;;;;;4.70;1.00;;;;;;;9.92;56.08;97743.19;9967249;29;20062;-75
2022/05/28 04:05:42;;;;;;;3.88;0.93;;;;;;;9.98;56.03;97743.63;9973132;29;20054;-75
2022/05/28 04:11:33;;;;;;;3.42;0.68;;;;;;;9.98;55.85;97748.47;9963789;29;20055;-75
2022/05/28 04:17:03;;;;;;;4.35;0.98;;;;;;;10.01;56.06;97750.06;9982138;29;20119;-75
2022/05/28 04:23:09;;;;;;;4.72;0.65;;;;;;;10.12;55.85;97746.63;9959218;29;20066;-76
2022/05/28 04:28:35;;;;;;;5.50;0.80;;;;;;;10.18;55.41;97749.13;9971509;29;20042;-75
2022/05/28 04:34:06;;;;;;;6.10;1.30;;;;;;;10.23;55.18;97748.09;9970398;29;20110;-76
2022/05/28 04:39:30;;;;;;;4.93;0.70;;;;;;;10.33;55.35;97757.19;9983994;29;20488;-75
2022/05/28 04:46:24;;;;;;;5.90;1.10;;;;;;;10.45;55.10;97748.91;9969309;29;20050;-76
2022/05/28 04:51:47;;;;;;;5.68;1.13;;;;;;;10.68;54.41;97748.34;9951934;29;20131;-75
2022/05/28 05:04:41;;;;;;;4.25;0.57;;;;;;;11.10;53.67;97753.97;9966293;29;20058;-77
2022/05/28 05:11:07;;;;;;;4.40;0.65;;;;;;;11.31;53.25;97746.91;9948936;29;20050;-80
2022/05/28 05:16:57;;;;;;;4.40;0.95;;;;;;;11.59;52.30;97759.16;9982886;29;20510;-80
2022/05/28 05:22:59;;;;;;;3.65;0.70;;;;;;;11.92;51.33;97761.94;9949872;29;20132;-80
2022/05/28 05:28:50;;;;;;;3.40;0.40;;;;;;;12.23;51.16;97759.69;9948190;29;20130;-77
2022/05/28 05:34:25;;;;;;;5.00;0.70;;;;;;;12.55;50.29;97760.22;9943913;29;20058;-77
2022/05/28 05:41:52;;;;;;;2.40;0.70;;;;;;;13.31;48.52;97780.06;9955400;29;20054;-77
2022/05/28 05:47:41;;;;;;;6.25;0.73;;;;;;;14.25;47.09;97757.19;9954830;29;20506;-77
2022/05/28 05:53:36;;;;;;;5.85;0.55;;;;;;;15.07;44.90;97754.44;9945259;29;20051;-77
2022/05/28 05:59:04;;;;;;;4.38;0.60;;;;;;;16.08;42.96;97757.16;9944250;29;20106;-77
2022/05/28 06:04:53;;;;;;;5.10;0.60;;;;;;;17.54;40.91;97759.94;9947196;29;20519;-77
2022/05/28 06:10:19;;;;;;;5.10;0.77;;;;;;;18.79;38.68;97752.03;9943798;29;20539;-77
2022/05/28 06:15:40;;;;;;;3.92;0.30;;;;;;;19.70;37.71;97743.06;9929171;29;20046;-77
2022/05/28 06:21:29;;;;;;;4.07;1.13;;;;;;;21.75;35.13;97748.06;9939760;29;20490;-76
2022/05/28 06:26:50;;;;;;;3.00;0.47;;;;;;;23.12;30.41;97743.84;9934988;29;20054;-75
2022/05/28 06:32:11;;;;;;;4.70;0.50;;;;;;;23.92;29.77;97737.34;9909019;29;20046;-77
2022/05/28 06:37:32;;;;;;;2.13;0.30;;;;;;;24.57;29.12;97731.81;9949046;29;20467;-78
2022/05/28 06:42:55;;;;;;;2.38;0.43;;;;;;;25.77;27.25;97724.47;9934442;29;20103;-77
2022/05/28 06:48:16;;;;;;;1.75;0.40;;;;;;;26.89;25.61;97733.63;9960340;29;20062;-77
2022/05/28 06:53:45;;;;;;;1.77;0.32;;;;;;;26.25;24.16;97738.38;9933909;29;20051;-77
2022/05/28 06:59:06;;;;;;;1.60;0.30;;;;;;;25.81;24.86;97735.94;9945229;29;20058;-78
2022/05/28 07:04:29;;;;;;;1.48;0.30;;;;;;;24.17;25.17;97732.72;9920342;29;20120;-77
2022/05/28 07:09:50;;;;;;;2.73;0.43;;;;;;;23.20;28.11;97737.59;9944801;29;20414;-77
2022/05/28 07:15:13;;;;;;;2.85;0.30;;;;;;;26.39;23.84;97734.88;9944842;29;20058;-77
2022/05/28 07:20:34;;;;;;;5.13;0.40;;;;;;;25.40;23.86;97735.59;9932189;29;20157;-78
2022/05/28 07:26:13;;;;;;;2.00;0.40;;;;;;;24.48;25.52;97731.00;9932034;29;20051;-77
2022/05/28 07:31:35;;;;;;;3.53;0.30;;;;;;;25.53;23.79;97724.25;9932801;29;20051;-77
2022/05/28 07:36:56;;;;;;;3.08;0.70;;;;;;;26.86;22.65;97729.34;9919281;29;20057;-77
2022/05/28 07:42:17;;;;;;;2.38;0.20;;;;;;;24.04;23.54;97730.41;9931593;29;20058;-77
2022/05/28 07:47:37;;;;;;;5.15;0.47;;;;;;;23.70;23.73;97722.78;9943740;29;20587;-77
2022/05/28 07:52:59;;;;;;;1.85;0.22;;;;;;;23.17;23.83;97735.41;9931255;29;20116;-77
2022/05/28 07:58:21;;;;;;;1.83;0.20;;;;;;;21.03;25.50;97724.94;9931495;29;20050;-77
2022/05/28 08:03:41;;;;;;;1.70;0.22;;;;;;;20.06;26.81;97734.97;9906273;29;20054;-77
2022/05/28 08:09:02;;;;;;;1.58;0.20;;;;;;;19.10;28.01;97734.00;9931081;29;20047;-77
2022/05/28 08:14:23;;;;;;;1.70;0.30;;;;;;;19.29;29.25;97757.97;9934067;29;20051;-77
2022/05/28 08:19:44;;;;;;;3.17;0.30;;;;;;;17.69;30.06;97798.66;9938146;29;20062;-77
2022/05/28 08:25:05;;;;;;;3.90;0.30;;;;;;;18.41;30.52;97802.19;9925728;29;20051;-79
2022/05/28 08:30:26;;;;;;;1.13;0.10;;;;;;;17.00;31.76;97802.16;9950149;29;20054;-77
2022/05/28 08:35:46;;;;;;;4.20;0.22;;;;;;;16.07;34.10;97798.66;9937299;29;20115;-77
2022/05/28 08:41:21;;;;;;;1.10;0.10;;;;;;;21.99;36.11;97799.75;9937318;29;20494;-77
2022/05/28 08:46:43;;;;;;;2.30;0.30;;;;;;;30.76;23.65;97806.75;9938143;29;20097;-78
2022/05/28 08:52:10;;;;;;;1.85;0.32;;;;;;;34.85;20.75;97801.56;9949202;29;20351;-80
2022/05/28 08:57:40;;;;;;;1.20;0.20;;;;;;;38.92;14.25;97815.84;9924620;29;20054;-81
2022/05/28 09:03:05;;;;;;;1.35;0.30;;;;;;;41.48;10.66;97810.31;9924830;29;20043;-79
2022/05/28 09:08:33;;;;;;;1.15;0.20;;;;;;;44.30;10.65;97809.16;9948942;29;20086;-80
2022/05/28 09:13:54;;;;;;;;;;;;;;;46.79;6.74;97801.28;9937076;29;20059;-79
2022/05/28 09:19:30;;;;;;;1.58;0.35;;;;;;;48.35;7.48;97784.13;9959988;29;19925;-80
2022/05/28 09:24:53;;;;;;;1.58;0.20;;;;;;;49.76;6.06;97781.34;9948515;29;20057;-79
2022/05/28 09:30:22;;;;;;;1.15;0.30;;;;;;;50.24;4.60;97765.84;9935879;29;20049;-79
2022/05/28 09:35:56;;;;;;;0.60;0.20;;;;;;;50.54;4.60;97762.97;9923364;29;20422;-79
2022/05/28 09:41:30;;;;;;;1.38;0.30;;;;;;;50.64;4.74;97746.47;9959980;29;20517;-81
2022/05/28 09:46:51;;;;;;;1.77;0.40;;;;;;;48.96;4.67;97749.25;9922191;29;20073;-80
2022/05/28 09:52:12;;;;;;;2.47;0.50;;;;;;;49.43;4.58;97741.41;9934565;29;20051;-78
2022/05/28 09:57:43;;;;;;;2.87;0.50;;;;;;;51.04;3.01;97729.94;9934931;29;20548;-80
2022/05/28 10:08:48;;;;;;;1.40;0.32;;;;;;;39.58;6.09;97719.41;9938853;29;20054;-79
2022/05/28 10:14:14;;;;;;;2.03;0.47;;;;;;;32.89;9.50;97730.44;9934058;29;20065;-79
2022/05/28 10:19:39;;;;;;;1.17;0.40;;;;;;;31.76;11.85;97719.59;9921303;29;20116;-80
2022/05/28 10:25:02;;;;;;;3.13;0.40;;;;;;;34.02;10.29;97711.84;9933701;29;20055;-79
2022/05/28 10:30:38;;;;;;;2.88;0.30;;;;;;;39.40;7.90;97712.91;9921580;29;20054;-80
2022/05/28 10:36:10;;;;;;;1.98;0.25;;;;;;;34.16;8.97;97713.63;9945252;29;20051;-79
2022/05/28 10:41:32;;;;;;;2.65;0.40;;;;;;;29.74;11.16;97720.69;9945553;29;20047;-81
2022/05/28 10:47:14;;;;;;;1.63;0.30;;;;;;;26.35;14.27;97726.25;9920160;29;20054;-78
2022/05/28 10:52:34;;;;;;;2.72;0.30;;;;;;;31.78;14.63;97724.63;9957797;29;20051;-81
2022/05/28 10:58:07;;;;;;;;;;;;;;;33.74;10.80;97712.56;9945293;29;20051;-80
2022/05/28 11:03:58;;;;;;;2.60;0.30;;;;;;;30.59;12.58;97716.19;9957557;29;19925;-80
2022/05/28 11:09:19;;;;;;;;;;;;;;;29.40;13.62;97713.03;9946187;29;20092;-80
2022/05/28 11:15:12;;;;;;;3.88;0.40;;;;;;;28.61;14.30;97706.31;9945369;29;19932;-80
2022/05/28 11:21:01;;;;;;;4.05;0.30;;;;;;;27.54;14.98;97707.97;9933707;29;20088;-79
2022/05/28 11:26:25;;;;;;;2.17;0.28;;;;;;;26.86;15.60;97720.75;9946682;29;20134;-80
2022/05/28 11:32:00;;;;;;;1.50;0.40;;;;;;;26.25;15.78;97701.19;9956636;29;20051;-80
2022/05/28 11:37:29;;;;;;;2.38;0.40;;;;;;;26.36;15.90;97699.06;9919074;29;20452;-79
2022/05/28 11:43:12;;;;;;;2.47;0.28;;;;;;;25.82;17.53;97703.06;9931480;29;20046;-79
2022/05/28 11:54:25;;;;;;;1.00;0.22;;;;;;;24.98;18.22;97706.59;9952212;29;20054;-81
2022/05/28 11:59:45;;;;;;;4.80;0.47;;;;;;;24.57;18.60;97703.28;9938880;29;20107;-79
2022/05/28 12:05:20;;;;;;;1.67;0.30;;;;;;;24.50;18.87;97693.22;9938368;29;20054;-79
2022/05/28 12:10:50;;;;;;;3.05;0.20;;;;;;;24.18;18.89;97699.22;9951049;29;20062;-79
2022/05/28 12:16:31;;;;;;;1.58;0.30;;;;;;;24.38;19.57;97693.81;9950864;29;20047;-79
2022/05/28 12:21:52;;;;;;;2.45;0.30;;;;;;;24.07;20.11;97689.09;9951296;29;20047;-79
2022/05/28 12:27:21;;;;;;;2.30;0.22;;;;;;;23.64;19.66;97688.47;9937645;29;20057;-79
2022/05/28 12:32:48;;;;;;;1.65;0.30;;;;;;;23.39;19.78;97684.50;9937620;29;20456;-81
2022/05/28 12:38:08;;;;;;;2.38;0.20;;;;;;;22.80;20.19;97694.84;9937643;29;20158;-79
2022/05/28 12:43:33;;;;;;;1.90;0.50;;;;;;;22.27;20.53;97691.69;9950837;29;20047;-80
2022/05/28 12:49:07;;;;;;;1.27;0.30;;;;;;;22.38;20.78;97678.38;9924364;29;20051;-79
2022/05/28 12:54:36;;;;;;;8.18;0.50;;;;;;;23.04;20.35;97686.78;9937290;29;20505;-79
2022/05/28 13:00:07;;;;;;;4.15;0.22;;;;;;;23.41;20.18;97678.84;9936407;29;20051;-79
2022/05/28 13:05:30;;;;;;;1.73;0.30;;;;;;;23.47;20.06;97678.94;9936767;29;20411;-79
2022/05/28 13:11:05;;;;;;;2.45;0.30;;;;;;;23.11;19.69;97673.38;9936409;29;20055;-80
2022/05/28 13:16:49;;;;;;;2.42;0.30;;;;;;;22.53;19.95;97676.56;9925279;29;20046;-79
2022/05/28 13:22:23;;;;;;;1.25;0.20;;;;;;;22.37;20.52;97674.09;9925549;29;20062;-79
2022/05/28 13:27:56;;;;;;;4.95;0.30;;;;;;;22.85;20.07;97667.94;9948368;29;20505;-80
2022/05/28 13:33:18;;;;;;;2.35;0.20;;;;;;;22.47;20.20;97668.63;9949139;29;20054;-81
2022/05/28 13:38:40;;;;;;;1.90;0.47;;;;;;;22.02;20.33;97652.06;9922740;29;20051;-80
2022/05/28 13:44:05;;;;;;;1.25;0.20;;;;;;;21.85;20.17;97653.81;9935444;29;20111;-79
2022/05/28 13:49:26;;;;;;;1.67;0.20;;;;;;;21.86;20.00;97650.31;9947204;29;20059;-81
2022/05/28 13:55:03;;;;;;;1.98;0.22;;;;;;;22.30;20.24;97661.19;9934757;29;20482;-79
2022/05/28 14:00:31;;;;;;;4.45;0.30;;;;;;;22.39;20.09;97653.53;9947392;29;20062;-81
2022/05/28 14:05:52;;;;;;;1.85;0.20;;;;;;;22.00;20.32;97661.22;9946893;29;20051;-79
2022/05/28 14:11:30;;;;;;;2.10;0.40;;;;;;;21.61;20.63;97649.03;9921178;29;20103;-79
2022/05/28 14:17:01;;;;;;;1.38;0.28;;;;;;;21.68;20.89;97658.41;9947006;29;20042;-79
2022/05/28 14:22:32;;;;;;;1.83;0.20;;;;;;;21.37;20.78;97654.88;9933762;29;20076;-79
2022/05/28 14:27:53;;;;;;;0.70;0.20;;;;;;;21.10;21.29;97649.94;9933553;29;20051;-79
2022/05/28 14:33:36;;;;;;;1.45;0.20;;;;;;;21.56;21.00;97652.47;9946123;29;20050;-79
2022/05/28 14:39:11;;;;;;;2.17;0.30;;;;;;;21.51;20.75;97648.78;9945929;29;20406;-79
2022/05/28 14:44:35;;;;;;;3.85;0.40;;;;;;;21.41;20.85;97637.22;9933158;29;20043;-79
2022/05/28 14:49:57;;;;;;;1.10;0.20;;;;;;;21.08;20.46;97638.53;9945252;29;20147;-79
2022/05/28 14:55:34;;;;;;;0.77;0.17;;;;;;;20.73;20.97;97636.94;9945017;29;20070;-80
2022/05/28 15:01:07;;;;;;;1.80;0.20;;;;;;;21.11;21.17;97628.66;9945115;29;20505;-79
2022/05/28 15:06:28;;;;;;;1.52;0.20;;;;;;;21.33;20.77;97642.72;9945189;29;20051;-79
2022/05/28 15:12:00;;;;;;;2.03;0.30;;;;;;;20.91;20.22;97640.25;9932136;29;20057;-79
2022/05/28 15:17:21;;;;;;;2.03;0.60;;;;;;;20.42;20.78;97638.94;9944640;29;20051;-79
2022/05/28 15:22:42;;;;;;;1.35;0.30;;;;;;;19.94;21.47;97633.34;9919227;29;20077;-79
2022/05/28 15:28:03;;;;;;;2.97;0.32;;;;;;;19.55;21.79;97633.56;9957101;29;20043;-79
2022/05/28 15:33:24;;;;;;;1.40;0.40;;;;;;;19.76;22.00;97629.25;9931687;29;20047;-80
2022/05/28 15:38:45;;;;;;;2.15;0.20;;;;;;;19.66;21.94;97633.22;9931723;29;20050;-79
2022/05/28 15:44:10;;;;;;;2.33;0.20;;;;;;;19.46;22.07;97632.59;9931389;29;20070;-79
2022/05/28 15:49:31;;;;;;;1.27;0.25;;;;;;;19.30;22.44;97638.47;9906483;29;20479;-79
2022/05/28 15:54:52;;;;;;;4.22;1.15;;;;;;;19.37;22.33;97628.78;9945035;29;20043;-80
2022/05/28 16:00:13;;;;;;;1.75;0.28;;;;;;;19.43;22.24;97625.44;9931118;29;20078;-80
2022/05/28 16:05:40;;;;;;;1.30;0.30;;;;;;;19.34;22.39;97620.91;9931303;29;20050;-79
2022/05/28 16:11:00;;;;;;;1.67;0.22;;;;;;;19.11;22.85;97617.38;9943537;29;20086;-79
2022/05/28 16:16:21;;;;;;;2.90;0.32;;;;;;;18.84;23.05;97612.25;9905950;29;20051;-80
2022/05/28 16:21:42;;;;;;;6.85;0.35;;;;;;;18.71;23.26;97621.69;9918091;29;20513;-79
2022/05/28 16:27:03;;;;;;;1.65;0.35;;;;;;;18.91;23.46;97613.88;9943337;29;20051;-79
2022/05/28 16:32:23;;;;;;;1.77;0.30;;;;;;;19.25;23.13;97619.19;9930660;29;20047;-79
2022/05/28 16:37:45;;;;;;;2.42;0.20;;;;;;;19.08;23.03;97623.59;9936876;29;20106;-79
2022/05/28 16:43:07;;;;;;;2.28;0.30;;;;;;;18.78;23.50;97624.06;9951096;29;20051;-79
2022/05/28 16:48:28;;;;;;;1.83;0.30;;;;;;;18.46;23.44;97629.31;9937650;29;20061;-79
2022/05/28 16:53:48;;;;;;;0.73;0.20;;;;;;;18.26;23.88;97626.50;9924383;29;20490;-79
2022/05/28 16:59:10;;;;;;;3.15;0.30;;;;;;;18.14;24.17;97625.31;9936833;29;20078;-77
2022/05/28 17:04:31;;;;;;;4.32;0.38;;;;;;;18.00;24.39;97628.38;9936778;29;20050;-77
2022/05/28 17:09:52;;;;;;;1.77;0.40;;;;;;;17.87;24.68;97635.66;9936555;29;20191;-76
2022/05/28 17:15:15;;;;;;;4.10;0.32;;;;;;;17.98;25.08;97639.59;9936261;29;20162;-77
2022/05/28 17:20:35;;;;;;;1.80;0.30;;;;;;;18.13;25.24;97638.00;9948908;29;20051;-76
2022/05/28 17:25:58;;;;;;;2.33;0.25;;;;;;;18.31;25.55;97647.84;9948546;29;20513;-76
2022/05/28 17:31:19;;;;;;;1.67;0.20;;;;;;;18.26;25.43;97648.38;9936040;29;20059;-77
2022/05/28 17:36:41;;;;;;;3.50;0.30;;;;;;;18.10;25.62;97640.03;9910946;29;20051;-76
2022/05/28 17:42:03;;;;;;;1.38;0.22;;;;;;;17.79;26.26;97643.13;9935528;29;20058;-77
2022/05/28 17:47:23;;;;;;;1.75;0.20;;;;;;;17.48;26.07;97644.03;9933869;29;20066;-77
2022/05/28 17:52:44;;;;;;;2.47;0.40;;;;;;;17.30;26.54;97647.56;9934627;29;20054;-78
2022/05/28 17:58:05;;;;;;;1.25;0.30;;;;;;;17.10;26.85;97652.41;9934923;29;20042;-77
2022/05/28 18:03:28;;;;;;;4.18;0.30;;;;;;;16.94;27.07;97646.09;9922125;29;20059;-78
2022/05/28 18:08:49;;;;;;;1.50;0.47;;;;;;;16.86;27.45;97647.22;9946746;29;20047;-80
2022/05/28 18:14:10;;;;;;;4.35;0.35;;;;;;;16.62;27.83;97649.00;9945874;29;20059;-78
2022/05/28 18:19:32;;;;;;;6.35;1.20;;;;;;;16.51;28.11;97669.66;9946393;29;20050;-77
2022/05/28 18:24:54;;;;;;;2.97;0.30;;;;;;;16.35;28.82;97664.03;9947893;29;20043;-75
2022/05/28 18:30:16;;;;;;;1.85;0.30;;;;;;;16.14;29.16;97665.25;9933756;29;20054;-77
2022/05/28 18:35:41;;;;;;;2.38;0.32;;;;;;;15.83;30.12;97673.69;9946538;29;20054;-77
2022/05/28 18:41:11;;;;;;;2.28;0.50;;;;;;;15.70;30.52;97678.00;9934794;29;20062;-77
2022/05/28 18:55:12;;;;;;;0.95;0.30;;;;;;;15.21;31.79;97669.31;9949330;29;20082;-75
2022/05/28 19:01:46;;;;;;;2.08;0.77;;;;;;;15.00;32.62;97696.44;9946437;29;20119;-75
2022/05/28 19:07:46;;;;;;;4.95;0.40;;;;;;;14.75;33.01;97688.16;9959042;29;20050;-76
2022/05/28 19:14:10;;;;;;;3.30;0.40;;;;;;;14.66;34.29;97703.16;9989516;29;20474;-76
2022/05/28 19:36:36;;;;;;;3.00;0.70;;;;;;;14.17;35.32;97700.59;9989820;29;20098;-75
2022/05/28 19:43:07;;;;;;;2.80;0.60;;;;;;;14.06;35.56;97710.56;9995789;29;20057;-75
2022/05/28 19:48:33;;;;;;;4.43;0.63;;;;;;;13.88;35.75;97707.50;9983045;29;20061;-75
2022/05/28 19:55:27;;;;;;;4.05;0.65;;;;;;;13.76;37.06;97706.84;9975087;29;20058;-75
2022/05/28 20:00:54;;;;;;;5.45;0.68;;;;;;;13.67;36.33;97707.75;9985244;29;20427;-75
2022/05/28 20:06:47;;;;;;;6.85;1.38;;;;;;;13.55;36.63;97698.69;9982355;29;20054;-75
2022/05/28 20:13:19;;;;;;;5.47;1.60;;;;;;;13.40;37.48;97711.19;9989951;29;20422;-75
2022/05/28 20:19:19;;;;;;;9.93;2.13;;;;;;;13.28;37.57;97714.03;9998682;29;20046;-75
2022/05/28 20:24:47;;;;;;;4.05;1.50;;;;;;;13.24;37.49;97711.00;9989183;29;20046;-75
2022/05/28 20:30:37;;;;;;;3.67;0.80;;;;;;;13.23;37.56;97715.16;9981148;29;20063;-75
2022/05/28 20:35:59;;;;;;;3.22;0.82;;;;;;;13.30;38.15;97711.34;10003329;29;20073;-75
2022/05/28 20:41:24;;;;;;;2.13;0.50;;;;;;;13.38;38.20;97703.38;9989629;29;20046;-75
2022/05/28 20:46:47;;;;;;;2.67;0.50;;;;;;;13.44;38.48;97694.59;9989828;29;20050;-75
2022/05/28 21:00:31;;;;;;;2.75;0.45;;;;;;;13.52;38.87;97691.50;9947717;29;20054;-75
2022/05/28 21:05:52;;;;;;;2.38;0.45;;;;;;;13.41;39.24;97693.75;9961005;29;20055;-75
2022/05/28 21:11:15;;;;;;;7.30;0.40;;;;;;;13.30;39.92;97705.00;9960962;29;20424;-75
2022/05/28 21:17:15;;;;;;;;;;;;;;;13.23;41.28;97706.03;9947508;29;20416;-75
2022/05/28 21:22:37;;;;;;;4.00;0.63;;;;;;;13.13;40.34;97700.56;9935242;29;19925;-75
2022/05/28 21:34:39;;;;;;;1.90;0.40;;;;;;;13.09;40.99;97703.09;9961799;29;20066;-75
2022/05/28 21:40:12;;;;;;;2.85;0.43;;;;;;;13.05;41.72;97702.88;9953069;29;20465;-75
2022/05/28 21:46:03;;;;;;;2.67;1.08;;;;;;;12.98;41.77;97701.06;9986582;29;20427;-74
2022/05/28 21:51:24;;;;;;;3.25;0.57;;;;;;;12.95;42.06;97691.09;9974737;29;20397;-75
2022/05/28 21:58:12;;;;;;;2.30;0.45;;;;;;;12.88;42.00;97679.53;9908014;29;20595;-75
2022/05/28 22:04:07;;;;;;;3.45;0.50;;;;;;;12.76;42.82;97687.25;9909281;29;20518;-75
2022/05/28 22:09:58;;;;;;;1.55;0.40;;;;;;;12.72;43.07;97689.06;9907944;30;20134;-75
2022/05/28 22:15:20;;;;;;;2.67;0.52;;;;;;;12.60;43.14;97684.22;9907900;30;20067;-74
2022/05/28 22:20:45;;;;;;;1.02;0.28;;;;;;;12.48;43.49;97677.19;9907715;30;20063;-75
2022/05/28 22:26:35;;;;;;;2.55;0.60;;;;;;;12.32;44.00;97666.47;9953332;29;20050;-75
2022/05/28 22:32:05;;;;;;;3.67;0.50;;;;;;;12.21;44.34;97672.09;9973258;29;20053;-75
2022/05/28 22:38:01;;;;;;;5.03;1.83;;;;;;;11.99;44.77;97669.41;10004199;29;20054;-75
2022/05/28 22:43:27;;;;;;;6.78;1.30;;;;;;;11.86;45.05;97666.47;10010363;29;20053;-75
2022/05/28 22:48:48;;;;;;;3.28;0.60;;;;;;;11.73;45.23;97670.56;10011444;29;20053;-75
2022/05/28 22:54:16;;;;;;;6.00;0.90;;;;;;;11.63;46.09;97667.88;9985963;29;20144;-75
2022/05/28 23:00:10;;;;;;;3.47;0.90;;;;;;;11.50;47.20;97654.50;9997551;29;20046;-75
2022/05/28 23:05:52;;;;;;;4.30;1.53;;;;;;;11.40;46.47;97665.03;9104623;27;20066;-75
2022/05/28 23:11:45;;;;;;;5.00;1.70;;;;;;;11.28;46.99;97655.88;9896278;30;20055;-75
2022/05/28 23:17:06;;;;;;;3.57;0.63;;;;;;;11.23;46.77;97662.53;9896695;30;20054;-75
2022/05/28 23:25:49;;;;;;;2.65;0.80;;;;;;;11.13;47.26;97645.88;9895968;30;20051;-75
2022/05/28 23:28:38;;;;;;;2.83;0.65;;;;;;;11.05;47.71;97640.50;9918244;29;20067;-75
2022/05/28 23:34:02;;;;;;;3.00;0.82;;;;;;;10.97;48.45;97633.66;9892501;30;20067;-75
2022/05/28 23:39:24;;;;;;;5.35;0.85;;;;;;;10.92;48.52;97629.88;9917465;29;20055;-75
2022/05/28 23:44:45;;;;;;;3.10;0.80;;;;;;;10.86;48.63;97621.84;9904967;30;20063;-75
2022/05/28 23:50:11;;;;;;;2.58;0.60;;;;;;;10.78;48.92;97623.38;9917304;29;20180;-75
2022/05/28 23:55:34;;;;;;;2.65;0.80;;;;;;;10.70;49.22;97611.69;9892750;29;20065;-74
